createdAt,value
2024-03-02T00:00:33.611Z,84.33
2024-03-02T00:03:04.067Z,84.50
2024-03-02T00:05:34.144Z,84.42
2024-03-02T00:08:07.879Z,84.33
2024-03-02T00:10:49.230Z,84.50
2024-03-02T00:13:24.124Z,84.75
2024-03-02T00:15:59.990Z,84.40
2024-03-02T00:18:34.283Z,84.47
2024-03-02T00:21:04.718Z,84.36
2024-03-02T00:23:36.361Z,84.57
2024-03-02T00:26:07.750Z,84.81
2024-03-02T00:28:40.213Z,85.17
2024-03-02T00:31:15.388Z,85.35
2024-03-02T00:33:47.042Z,85.18
2024-03-02T00:36:20.968Z,85.78
2024-03-02T00:38:55.021Z,85.34
2024-03-02T00:41:27.145Z,85.82
2024-03-02T00:44:05.079Z,85.61
2024-03-02T00:46:42.274Z,85.55
2024-03-02T00:49:21.620Z,85.55
2024-03-02T00:51:55.994Z,85.42
2024-03-02T00:54:30.243Z,85.73
2024-03-02T00:57:03.815Z,85.47
2024-03-02T00:59:33.891Z,85.26
2024-03-02T01:02:06.622Z,85.09
2024-03-02T01:04:36.634Z,85.36
2024-03-02T01:07:06.494Z,84.62
2024-03-02T01:09:36.671Z,84.96
2024-03-02T01:12:07.188Z,85.14
2024-03-02T01:14:37.127Z,84.77
2024-03-02T01:17:10.059Z,84.71
2024-03-02T01:19:42.267Z,85.05
2024-03-02T01:22:27.416Z,84.76
2024-03-02T01:24:57.869Z,84.34
2024-03-02T01:27:31.308Z,84.07
2024-03-02T01:30:01.505Z,84.24
2024-03-02T01:32:34.106Z,84.38
2024-03-02T01:35:09.177Z,84.36
2024-03-02T01:37:39.016Z,84.50
2024-03-02T01:40:10.635Z,84.58
2024-03-02T01:42:41.058Z,84.13
2024-03-02T01:45:14.648Z,84.13
2024-03-02T01:47:47.482Z,84.07
2024-03-02T01:50:24.776Z,84.24
2024-03-02T01:52:55.165Z,83.46
2024-03-02T01:55:32.124Z,83.54
2024-03-02T01:58:02.500Z,83.58
2024-03-02T02:00:35.850Z,83.72
2024-03-02T02:03:08.924Z,83.49
2024-03-02T02:05:47.286Z,83.45
2024-03-02T02:08:17.780Z,83.31
2024-03-02T02:10:48.076Z,83.58
2024-03-02T02:13:18.347Z,83.61
2024-03-02T02:15:51.740Z,83.60
2024-03-02T02:18:24.604Z,83.27
2024-03-02T02:21:01.051Z,82.95
2024-03-02T02:23:33.672Z,83.10
2024-03-02T02:26:06.320Z,82.97
2024-03-02T02:28:38.276Z,82.95
2024-03-02T02:31:17.178Z,82.63
2024-03-02T02:33:48.454Z,82.75
2024-03-02T02:36:18.402Z,82.53
2024-03-02T02:38:54.697Z,82.26
2024-03-02T02:41:28.057Z,81.60
2024-03-02T02:43:57.992Z,82.18
2024-03-02T02:46:28.092Z,82.25
2024-03-02T02:48:58.064Z,82.47
2024-03-02T02:51:28.840Z,82.48
2024-03-02T02:54:01.290Z,82.50
2024-03-02T02:56:31.289Z,82.61
2024-03-02T02:59:04.621Z,82.72
2024-03-02T03:01:35.958Z,82.54
2024-03-02T03:04:06.336Z,82.70
2024-03-02T03:06:40.353Z,82.88
2024-03-02T03:09:15.410Z,82.44
2024-03-02T03:11:45.485Z,82.48
2024-03-02T03:14:15.435Z,82.24
2024-03-02T03:16:47.422Z,82.19
2024-03-02T03:19:17.337Z,82.44
2024-03-02T03:21:50.478Z,82.35
2024-03-02T03:24:23.090Z,82.32
2024-03-02T03:26:53.109Z,82.59
2024-03-02T03:29:22.983Z,82.30
2024-03-02T03:31:53.312Z,82.11
2024-03-02T03:34:23.158Z,82.54
2024-03-02T03:36:56.141Z,82.38
2024-03-02T03:39:30.486Z,82.32
2024-03-02T03:42:00.396Z,81.80
2024-03-02T03:44:30.344Z,82.19
2024-03-02T03:47:03.444Z,82.33
2024-03-02T03:49:35.202Z,82.11
2024-03-02T03:52:08.650Z,82.43
2024-03-02T03:54:44.477Z,82.69
2024-03-02T03:57:14.591Z,82.91
2024-03-02T03:59:44.484Z,82.74
2024-03-02T04:02:14.305Z,82.91
2024-03-02T04:04:46.644Z,82.99
2024-03-02T04:07:17.096Z,83.50
2024-03-02T04:09:49.650Z,83.67
2024-03-02T04:12:23.551Z,83.37
2024-03-02T04:15:03.264Z,82.79
2024-03-02T04:17:38.436Z,83.21
2024-03-02T04:20:16.424Z,83.42
2024-03-02T04:22:49.362Z,83.49
2024-03-02T04:25:26.624Z,83.75
2024-03-02T04:28:00.595Z,84.19
2024-03-02T04:30:33.236Z,84.06
2024-03-02T04:33:03.850Z,83.86
2024-03-02T04:35:33.828Z,83.99
2024-03-02T04:38:14.794Z,83.95
2024-03-02T04:40:47.326Z,84.41
2024-03-02T04:43:18.273Z,84.35
2024-03-02T04:45:48.321Z,84.42
2024-03-02T04:48:24.396Z,84.60
2024-03-02T04:50:54.489Z,84.73
2024-03-02T04:53:24.786Z,84.42
2024-03-02T04:56:24.825Z,84.66
2024-03-02T04:58:55.100Z,84.18
2024-03-02T05:01:25.117Z,84.10
2024-03-02T05:03:55.137Z,84.45
2024-03-02T05:06:25.167Z,84.41
2024-03-02T05:08:54.957Z,84.30
2024-03-02T05:11:51.765Z,84.02
2024-03-02T05:14:21.692Z,84.45
2024-03-02T05:16:51.704Z,84.60
2024-03-02T05:19:21.881Z,84.61
2024-03-02T05:21:53.184Z,84.75
2024-03-02T05:24:23.469Z,85.01
2024-03-02T05:27:02.882Z,85.32
2024-03-02T05:29:38.381Z,84.84
2024-03-02T05:32:08.785Z,85.22
2024-03-02T05:34:47.973Z,85.55
2024-03-02T05:37:18.241Z,85.71
2024-03-02T05:39:48.563Z,85.93
2024-03-02T05:42:21.341Z,85.53
2024-03-02T05:44:54.578Z,85.52
2024-03-02T05:47:24.798Z,85.93
2024-03-02T05:49:55.699Z,85.56
2024-03-02T05:52:33.321Z,86.29
2024-03-02T05:55:03.629Z,85.76
2024-03-02T05:57:48.974Z,86.10
2024-03-02T06:00:23.531Z,86.15
2024-03-02T06:02:54.044Z,85.64
2024-03-02T06:05:30.362Z,85.94
2024-03-02T06:08:00.577Z,86.03
2024-03-02T06:10:30.532Z,86.05
2024-03-02T06:13:06.298Z,86.57
2024-03-02T06:15:39.032Z,86.38
2024-03-02T06:18:14.134Z,87.00
2024-03-02T06:20:46.810Z,86.98
2024-03-02T06:23:17.254Z,87.13
2024-03-02T06:25:47.255Z,86.88
2024-03-02T06:28:21.692Z,86.83
2024-03-02T06:30:51.562Z,87.44
2024-03-02T06:33:21.612Z,87.37
2024-03-02T06:36:09.819Z,87.55
2024-03-02T06:38:43.313Z,87.16
2024-03-02T06:41:13.719Z,87.79
2024-03-02T06:43:46.210Z,87.85
2024-03-02T06:46:16.436Z,87.85
2024-03-02T06:48:46.393Z,87.76
2024-03-02T06:51:17.256Z,88.06
2024-03-02T06:53:47.644Z,87.75
2024-03-02T06:56:17.500Z,88.05
2024-03-02T06:58:49.935Z,88.29
2024-03-02T07:01:23.819Z,88.83
2024-03-02T07:03:55.052Z,88.53
2024-03-02T07:06:24.976Z,88.43
2024-03-02T07:08:54.876Z,88.10
2024-03-02T07:11:24.796Z,87.78
2024-03-02T07:13:57.447Z,87.63
2024-03-02T07:16:29.385Z,87.70
2024-03-02T07:19:00.389Z,87.83
2024-03-02T07:21:30.359Z,87.59
2024-03-02T07:24:00.657Z,87.50
2024-03-02T07:29:06.984Z,87.57
2024-03-02T07:31:36.864Z,87.54
2024-03-02T07:34:07.018Z,87.71
2024-03-02T07:36:38.051Z,87.84
2024-03-02T07:39:08.831Z,87.71
2024-03-02T07:41:38.775Z,87.91
2024-03-02T07:44:12.583Z,87.01
2024-03-02T07:46:42.513Z,87.69
2024-03-02T07:49:12.650Z,87.90
2024-03-02T07:51:42.571Z,87.67
2024-03-02T07:54:12.438Z,87.66
2024-03-02T07:56:42.440Z,86.86
2024-03-02T07:59:14.958Z,86.31
2024-03-02T08:01:44.858Z,86.26
2024-03-02T08:04:15.522Z,84.58
2024-03-02T08:06:45.389Z,83.96
2024-03-02T08:09:15.268Z,83.43
2024-03-02T08:11:45.177Z,82.50
2024-03-02T08:14:17.730Z,81.65
2024-03-02T08:16:47.645Z,82.26
2024-03-02T08:19:17.617Z,79.10
2024-03-02T08:21:48.215Z,80.77
2024-03-02T08:24:18.206Z,80.34
2024-03-02T08:26:48.202Z,79.37
2024-03-02T08:29:20.809Z,79.91
2024-03-02T08:31:50.791Z,78.97
2024-03-02T08:34:20.842Z,78.79
2024-03-02T08:36:50.977Z,78.46
2024-03-02T08:39:22.031Z,80.02
2024-03-02T08:41:52.751Z,79.50
2024-03-02T08:44:25.993Z,79.18
2024-03-02T08:46:55.820Z,79.87
2024-03-02T08:49:25.709Z,79.05
2024-03-02T08:51:56.567Z,79.79
2024-03-02T08:54:26.785Z,79.99
2024-03-02T08:56:56.940Z,80.37
2024-03-02T08:59:29.480Z,79.18
2024-03-02T09:01:59.379Z,79.59
2024-03-02T09:04:31.650Z,79.74
2024-03-02T09:07:03.776Z,79.86
2024-03-02T09:09:33.898Z,79.72
2024-03-02T09:12:03.819Z,79.49
2024-03-02T09:14:36.498Z,78.39
2024-03-02T09:17:06.811Z,78.72
2024-03-02T09:19:36.682Z,79.25
2024-03-02T09:22:07.133Z,79.57
2024-03-02T09:24:37.196Z,77.06
2024-03-02T09:27:07.593Z,77.87
2024-03-02T09:29:42.648Z,76.28
2024-03-02T09:32:16.887Z,77.35
2024-03-02T09:34:49.500Z,78.14
2024-03-02T09:37:20.582Z,77.27
2024-03-02T09:39:50.473Z,76.32
2024-03-02T09:42:21.556Z,76.72
2024-03-02T09:44:56.079Z,76.41
2024-03-02T09:47:25.988Z,75.91
2024-03-02T09:49:56.910Z,75.03
2024-03-02T09:52:26.908Z,75.08
2024-03-02T09:54:56.846Z,73.45
2024-03-02T09:57:26.755Z,72.54
2024-03-02T09:59:59.201Z,74.04
2024-03-02T10:02:29.081Z,73.96
2024-03-02T10:04:58.974Z,70.83
2024-03-02T10:07:28.796Z,72.12
2024-03-02T10:09:58.732Z,72.23
2024-03-02T10:12:29.134Z,73.70
2024-03-02T10:15:08.958Z,73.49
2024-03-02T10:17:39.706Z,71.72
2024-03-02T10:20:30.340Z,72.05
2024-03-02T10:23:13.459Z,72.25
2024-03-02T10:25:51.401Z,68.30
2024-03-02T10:28:29.598Z,70.29
2024-03-02T10:31:02.904Z,70.42
2024-03-02T10:33:32.982Z,68.40
2024-03-02T10:36:02.888Z,69.80
2024-03-02T10:38:32.708Z,67.06
2024-03-02T10:41:05.090Z,69.53
2024-03-02T10:43:35.524Z,69.49
2024-03-02T10:46:08.059Z,69.74
2024-03-02T10:48:40.931Z,65.92
2024-03-02T10:51:10.907Z,66.28
2024-03-02T10:53:40.739Z,67.66
2024-03-02T10:56:16.738Z,65.75
2024-03-02T10:58:46.821Z,67.78
2024-03-02T11:01:19.501Z,65.72
2024-03-02T11:03:49.617Z,67.25
2024-03-02T11:06:20.126Z,67.09
2024-03-02T11:08:53.152Z,66.87
2024-03-02T11:11:30.498Z,67.21
2024-03-02T11:14:09.547Z,65.54
2024-03-02T11:16:43.058Z,66.50
2024-03-02T11:19:17.808Z,68.12
2024-03-02T11:21:48.747Z,67.57
2024-03-02T11:24:42.381Z,65.17
2024-03-02T11:27:14.063Z,66.92
2024-03-02T11:29:47.758Z,65.85
2024-03-02T11:32:22.223Z,66.73
2024-03-02T11:34:53.801Z,66.12
2024-03-02T11:37:24.634Z,67.15
2024-03-02T11:39:55.833Z,66.63
2024-03-02T11:42:25.782Z,65.38
2024-03-02T11:44:56.131Z,67.05
2024-03-02T11:47:38.794Z,67.06
2024-03-02T11:50:10.942Z,66.94
2024-03-02T11:52:42.180Z,66.82
2024-03-02T11:55:13.956Z,66.42
2024-03-02T11:57:43.996Z,66.06
2024-03-02T12:00:21.864Z,65.36
2024-03-02T12:03:04.362Z,62.99
2024-03-02T12:05:34.909Z,60.88
2024-03-02T12:08:06.296Z,62.84
2024-03-02T12:10:36.774Z,64.77
2024-03-02T12:13:08.962Z,61.99
2024-03-02T12:15:42.343Z,64.70
2024-03-02T12:18:14.844Z,57.94
2024-03-02T12:20:44.625Z,60.45
2024-03-02T12:23:15.249Z,62.78
2024-03-02T12:25:46.286Z,61.84
2024-03-02T12:28:16.355Z,61.46
2024-03-02T12:30:46.496Z,61.83
2024-03-02T12:33:19.121Z,60.71
2024-03-02T12:35:48.957Z,62.81
2024-03-02T12:38:19.058Z,63.03
2024-03-02T12:40:48.927Z,60.69
2024-03-02T12:43:18.804Z,61.15
2024-03-02T12:45:48.810Z,62.02
2024-03-02T12:48:21.367Z,61.48
2024-03-02T12:50:51.669Z,62.17
2024-03-02T12:53:21.591Z,61.78
2024-03-02T12:55:53.062Z,61.54
2024-03-02T12:58:23.388Z,62.99
2024-03-02T13:00:53.511Z,62.56
2024-03-02T13:03:26.383Z,61.79
2024-03-02T13:05:56.357Z,62.84
2024-03-02T13:08:26.276Z,63.11
2024-03-02T13:10:56.301Z,62.53
2024-03-02T13:13:26.948Z,63.16
2024-03-02T13:15:59.834Z,63.00
2024-03-02T13:18:33.165Z,63.43
2024-03-02T13:21:03.086Z,63.28
2024-03-02T13:23:33.124Z,62.52
2024-03-02T13:26:03.374Z,63.55
2024-03-02T13:28:33.866Z,62.76
2024-03-02T13:31:03.907Z,62.90
2024-03-02T13:33:36.533Z,63.24
2024-03-02T13:36:07.292Z,62.02
2024-03-02T13:38:37.617Z,62.19
2024-03-02T13:41:07.797Z,63.16
2024-03-02T13:43:39.872Z,62.41
2024-03-02T13:46:11.238Z,62.54
2024-03-02T13:48:43.807Z,63.25
2024-03-02T13:51:13.609Z,63.25
2024-03-02T13:53:43.441Z,63.46
2024-03-02T13:56:13.446Z,63.97
2024-03-02T13:58:43.401Z,64.58
2024-03-02T14:01:13.569Z,64.20
2024-03-02T14:03:47.461Z,63.82
2024-03-02T14:06:17.778Z,64.12
2024-03-02T14:08:49.549Z,62.79
2024-03-02T14:11:19.444Z,62.73
2024-03-02T14:13:55.047Z,62.73
2024-03-02T14:16:27.241Z,62.95
2024-03-02T14:19:00.710Z,63.12
2024-03-02T14:21:30.612Z,63.82
2024-03-02T14:24:00.583Z,63.67
2024-03-02T14:26:30.505Z,62.95
2024-03-02T14:29:00.453Z,63.20
2024-03-02T14:31:30.420Z,62.73
2024-03-02T14:34:04.369Z,63.51
2024-03-02T14:36:35.317Z,63.37
2024-03-02T14:39:05.498Z,63.41
2024-03-02T14:41:35.308Z,63.08
2024-03-02T14:44:05.184Z,62.95
2024-03-02T14:46:35.286Z,63.65
2024-03-02T14:49:22.181Z,63.56
2024-03-02T14:51:52.067Z,63.24
2024-03-02T14:54:22.002Z,62.95
2024-03-02T14:56:53.032Z,61.63
2024-03-02T14:59:23.139Z,62.42
2024-03-02T15:01:53.112Z,62.98
2024-03-02T15:04:26.125Z,61.94
2024-03-02T15:06:56.006Z,63.49
2024-03-02T15:09:25.883Z,63.26
2024-03-02T15:11:55.794Z,63.53
2024-03-02T15:14:25.869Z,63.04
2024-03-02T15:16:57.536Z,63.93
2024-03-02T15:19:30.031Z,63.51
2024-03-02T15:21:59.962Z,63.20
2024-03-02T15:24:29.815Z,62.84
2024-03-02T15:26:59.701Z,63.23
2024-03-02T15:29:30.814Z,62.69
2024-03-02T15:32:00.867Z,62.22
2024-03-02T15:34:33.461Z,61.37
2024-03-02T15:37:05.384Z,61.32
2024-03-02T15:39:35.809Z,61.52
2024-03-02T15:42:06.377Z,62.35
2024-03-02T15:44:36.262Z,62.67
2024-03-02T15:47:06.486Z,62.71
2024-03-02T15:49:38.900Z,60.74
2024-03-02T15:52:08.847Z,61.90
2024-03-02T15:54:38.804Z,61.93
2024-03-02T15:57:08.796Z,62.25
2024-03-02T15:59:38.674Z,61.86
2024-03-02T16:02:09.058Z,62.57
2024-03-02T16:04:41.973Z,62.30
2024-03-02T16:07:12.600Z,62.72
2024-03-02T16:09:42.582Z,61.67
2024-03-02T16:12:12.590Z,62.02
2024-03-02T16:14:42.519Z,62.00
2024-03-02T16:17:12.450Z,61.77
2024-03-02T16:19:45.112Z,62.43
2024-03-02T16:22:15.161Z,62.26
2024-03-02T16:24:45.012Z,62.44
2024-03-02T16:27:14.906Z,62.16
2024-03-02T16:29:45.091Z,61.66
2024-03-02T16:32:15.012Z,62.57
2024-03-02T16:34:47.613Z,62.52
2024-03-02T16:37:17.527Z,62.31
2024-03-02T16:39:47.947Z,62.90
2024-03-02T16:42:21.229Z,62.62
2024-03-02T16:44:54.606Z,61.88
2024-03-02T16:47:24.881Z,62.99
2024-03-02T16:50:00.066Z,62.89
2024-03-02T16:52:31.784Z,63.58
2024-03-02T16:55:04.480Z,63.22
2024-03-02T16:57:35.236Z,63.02
2024-03-02T17:00:05.179Z,63.11
2024-03-02T17:02:35.147Z,63.32
2024-03-02T17:05:08.468Z,62.87
2024-03-02T17:07:38.436Z,64.00
2024-03-02T17:10:09.426Z,63.98
2024-03-02T17:12:41.418Z,64.63
2024-03-02T17:15:12.060Z,63.98
2024-03-02T17:17:42.077Z,64.56
2024-03-02T17:20:16.247Z,64.24
2024-03-02T17:22:46.122Z,64.31
2024-03-02T17:25:16.139Z,64.61
2024-03-02T17:27:46.296Z,64.85
2024-03-02T17:30:17.733Z,64.68
2024-03-02T17:32:47.545Z,64.85
2024-03-02T17:35:20.120Z,64.74
2024-03-02T17:37:52.277Z,64.43
2024-03-02T17:40:22.186Z,64.30
2024-03-02T17:42:52.065Z,64.68
2024-03-02T17:45:21.909Z,63.90
2024-03-02T17:47:51.792Z,64.86
2024-03-02T17:50:24.301Z,64.79
2024-03-02T17:52:56.299Z,65.10
2024-03-02T17:55:26.116Z,64.46
2024-03-02T17:57:56.019Z,64.30
2024-03-02T18:00:26.323Z,64.46
2024-03-02T18:02:56.228Z,64.41
2024-03-02T18:05:28.697Z,64.89
2024-03-02T18:07:58.580Z,63.88
2024-03-02T18:10:30.283Z,64.73
2024-03-02T18:13:00.299Z,63.87
2024-03-02T18:15:30.140Z,64.15
2024-03-02T18:18:01.157Z,64.66
2024-03-02T18:20:34.652Z,64.41
2024-03-02T18:23:04.614Z,64.43
2024-03-02T18:25:34.531Z,64.04
2024-03-02T18:28:04.443Z,63.81
2024-03-02T18:30:34.305Z,64.02
2024-03-02T18:33:05.321Z,64.47
2024-03-02T18:35:37.847Z,64.50
2024-03-02T18:38:08.231Z,64.25
2024-03-02T18:40:38.147Z,64.61
2024-03-02T18:43:08.346Z,64.72
2024-03-02T18:45:38.683Z,63.44
2024-03-02T18:48:09.476Z,64.34
2024-03-02T18:50:42.057Z,63.96
2024-03-02T18:53:13.799Z,64.13
2024-03-02T18:55:44.080Z,64.45
2024-03-02T18:58:13.996Z,64.66
2024-03-02T19:00:44.178Z,64.31
2024-03-02T19:03:14.383Z,64.19
2024-03-02T19:05:46.861Z,64.03
2024-03-02T19:08:19.740Z,64.24
2024-03-02T19:10:49.631Z,63.68
2024-03-02T19:13:19.580Z,64.51
2024-03-02T19:15:49.680Z,64.81
2024-03-02T19:18:19.700Z,64.74
2024-03-02T19:20:54.680Z,64.13
2024-03-02T19:23:29.124Z,64.41
2024-03-02T19:26:02.585Z,64.44
2024-03-02T19:28:32.476Z,64.41
2024-03-02T19:31:03.319Z,64.55
2024-03-02T19:33:33.217Z,64.63
2024-03-02T19:36:06.685Z,64.65
2024-03-02T19:38:37.982Z,64.97
2024-03-02T19:41:08.100Z,65.50
2024-03-02T19:43:37.944Z,65.42
2024-03-02T19:46:08.177Z,65.17
2024-03-02T19:48:38.086Z,65.06
2024-03-02T19:51:10.893Z,65.63
2024-03-02T19:53:40.731Z,66.02
2024-03-02T19:56:10.910Z,65.90
2024-03-02T19:58:40.820Z,66.02
2024-03-02T20:01:10.748Z,66.55
2024-03-02T20:03:40.685Z,66.27
2024-03-02T20:06:13.853Z,66.41
2024-03-02T20:08:43.767Z,66.83
2024-03-02T20:11:13.686Z,67.24
2024-03-02T20:13:43.567Z,66.98
2024-03-02T20:16:13.717Z,67.37
2024-03-02T20:18:43.631Z,67.30
2024-03-02T20:21:16.100Z,67.20
2024-03-02T20:23:46.372Z,67.29
2024-03-02T20:26:17.613Z,67.38
2024-03-02T20:28:48.812Z,67.58
2024-03-02T20:31:18.805Z,67.67
2024-03-02T20:33:48.721Z,67.16
2024-03-02T20:36:21.212Z,67.08
2024-03-02T20:38:51.150Z,67.41
2024-03-02T20:41:22.979Z,67.28
2024-03-02T20:43:52.824Z,67.10
2024-03-02T20:46:22.893Z,67.36
2024-03-02T20:48:52.966Z,67.25
2024-03-02T20:51:29.923Z,67.54
2024-03-02T20:54:02.347Z,67.62
2024-03-02T20:56:32.179Z,67.62
2024-03-02T20:59:02.065Z,67.84
2024-03-02T21:01:31.964Z,67.88
2024-03-02T21:04:01.833Z,67.47
2024-03-02T21:06:34.306Z,68.00
2024-03-02T21:09:04.580Z,68.13
2024-03-02T21:11:34.465Z,68.33
2024-03-02T21:14:04.403Z,68.52
2024-03-02T21:16:34.245Z,68.85
2024-03-02T21:19:04.121Z,68.54
2024-03-02T21:21:36.956Z,68.66
2024-03-02T21:24:06.978Z,68.53
2024-03-02T21:26:42.677Z,68.56
2024-03-02T21:29:12.936Z,68.64
2024-03-02T21:31:44.989Z,69.29
2024-03-02T21:34:15.010Z,68.95
2024-03-02T21:36:47.466Z,70.16
2024-03-02T21:39:17.522Z,70.57
2024-03-02T21:41:48.623Z,70.55
2024-03-02T21:44:18.451Z,70.83
2024-03-02T21:46:49.185Z,70.85
2024-03-02T21:49:19.272Z,70.85
2024-03-02T21:51:52.107Z,71.08
2024-03-02T21:54:21.948Z,71.27
2024-03-02T21:56:52.653Z,71.79
2024-03-02T21:59:22.513Z,72.13
2024-03-02T22:01:52.783Z,71.75
2024-03-02T22:04:22.939Z,71.45
2024-03-02T22:06:55.520Z,71.62
2024-03-02T22:09:25.446Z,71.70
2024-03-02T22:11:55.346Z,72.11
2024-03-02T22:14:25.215Z,71.77
2024-03-02T22:16:55.032Z,72.04
2024-03-02T22:19:24.933Z,71.97
2024-03-02T22:21:57.381Z,72.30
2024-03-02T22:24:27.602Z,72.23
2024-03-02T22:26:57.427Z,72.64
2024-03-02T22:29:27.302Z,72.93
2024-03-02T22:31:57.147Z,72.96
2024-03-02T22:34:27.016Z,73.06
2024-03-02T22:36:59.517Z,73.25
2024-03-02T22:39:29.567Z,73.59
2024-03-02T22:41:59.383Z,73.67
2024-03-02T22:44:29.240Z,74.09
2024-03-02T22:46:59.080Z,74.26
2024-03-02T22:49:28.922Z,74.41
2024-03-02T22:52:01.367Z,74.11
2024-03-02T22:54:31.256Z,74.32
2024-03-02T22:57:02.322Z,74.62
2024-03-02T22:59:32.729Z,74.81
2024-03-02T23:02:02.701Z,74.48
2024-03-02T23:04:32.581Z,74.78
2024-03-02T23:07:05.115Z,74.60
2024-03-02T23:09:35.915Z,75.03
2024-03-02T23:12:05.883Z,74.98
2024-03-02T23:14:35.761Z,75.11
2024-03-02T23:17:06.016Z,75.12
2024-03-02T23:19:35.913Z,75.28
2024-03-02T23:22:09.943Z,75.41
2024-03-02T23:24:39.866Z,75.49
2024-03-02T23:27:09.675Z,75.81
2024-03-02T23:29:41.441Z,75.77
2024-03-02T23:32:12.824Z,76.02
2024-03-02T23:34:42.685Z,76.41
2024-03-02T23:37:15.291Z,76.97
2024-03-02T23:40:19.273Z,76.90
2024-03-02T23:42:49.289Z,77.15
2024-03-02T23:45:19.312Z,77.03
2024-03-02T23:47:49.589Z,77.37
2024-03-02T23:50:19.499Z,77.37
2024-03-02T23:52:51.961Z,77.89
2024-03-02T23:55:22.933Z,78.61
2024-03-02T23:57:54.163Z,78.77
